Time;durP1;ratioP1;P1;durP2;ratioP2;P2;SDS_P1;SDS_P2;PMS_P1;PMS_P2;Temp;Humidity;BMP_temperature;BMP_pressure;BME280_temperature;BME280_humidity;BME280_pressure;Samples;Min_cycle;Max_cycle;Signal;HPM_P1;HPM_P2
2023/07/21 00:00:46;;;;;;;5.82;2.90;;;;;;;;;;5044105;28;20026;-55
2023/07/21 00:03:13;;;;;;;3.65;2.38;;;;;;;;;;5044411;28;20025;-58
2023/07/21 00:05:39;;;;;;;5.00;2.20;;;;;;;;;;5044200;28;20267;-55
2023/07/21 00:08:06;;;;;;;4.45;1.83;;;;;;;;;;5044021;28;20025;-57
2023/07/21 00:10:33;;;;;;;5.35;2.05;;;;;;;;;;5044176;28;20070;-59
2023/07/21 00:12:59;;;;;;;2.88;1.65;;;;;;;;;;5044188;28;20021;-57
2023/07/21 00:15:27;;;;;;;2.08;1.60;;;;;;;;;;5043706;28;20033;-62
2023/07/21 00:17:54;;;;;;;6.38;2.40;;;;;;;;;;5043977;28;20195;-58
2023/07/21 00:20:21;;;;;;;3.63;1.73;;;;;;;;;;5043982;28;20065;-57
2023/07/21 00:22:49;;;;;;;5.57;2.20;;;;;;;;;;5043781;28;20032;-56
2023/07/21 00:25:18;;;;;;;4.40;2.35;;;;;;;;;;5043527;28;20033;-60
2023/07/21 00:28:05;;;;;;;4.50;2.40;;;;;;;;;;5043393;28;20026;-55
2023/07/21 00:30:37;;;;;;;5.90;1.80;;;;;;;;;;5043619;28;20233;-57
2023/07/21 00:33:26;;;;;;;2.47;1.80;;;;;;;;;;5043754;28;20100;-57
2023/07/21 00:35:55;;;;;;;4.30;2.15;;;;;;;;;;5043626;28;20321;-61
2023/07/21 00:38:31;;;;;;;;;;;;;;;;;;;;;
2023/07/21 00:41:02;;;;;;;2.90;2.05;;;;;;;;;;5043485;28;20060;-63
2023/07/21 00:43:28;;;;;;;7.50;2.70;;;;;;;;;;5043700;28;20101;-54
2023/07/21 00:45:58;;;;;;;5.25;3.58;;;;;;;;;;5043381;28;20217;-60
2023/07/21 00:48:25;;;;;;;4.00;2.70;;;;;;;;;;5043943;28;20183;-52
2023/07/21 00:50:55;;;;;;;4.50;2.15;;;;;;;;;;5043258;28;20105;-55
2023/07/21 00:53:25;;;;;;;4.43;1.63;;;;;;;;;;5025406;28;20033;-55
2023/07/21 00:55:54;;;;;;;3.70;1.60;;;;;;;;;;5042237;28;20041;-58
2023/07/21 00:58:32;;;;;;;4.05;1.77;;;;;;;;;;5043487;28;20040;-59
2023/07/21 01:00:58;;;;;;;14.80;11.70;;;;;;;;;;5043164;28;20033;-62
2023/07/21 01:03:25;;;;;;;12.20;10.63;;;;;;;;;;5043492;28;20337;-59
2023/07/21 01:05:53;;;;;;;5.35;4.82;;;;;;;;;;5043608;28;20013;-56
2023/07/21 01:08:21;;;;;;;4.38;3.97;;;;;;;;;;5043124;28;20034;-58
2023/07/21 01:10:48;;;;;;;3.85;2.40;;;;;;;;;;5043490;28;20025;-59
2023/07/21 01:13:16;;;;;;;4.15;2.20;;;;;;;;;;5043464;28;20013;-59
2023/07/21 01:19:03;;;;;;;4.07;2.20;;;;;;;;;;5029721;28;20037;-57
2023/07/21 01:21:41;;;;;;;7.30;2.00;;;;;;;;;;5043353;28;20082;-58
2023/07/21 01:24:17;;;;;;;3.63;2.03;;;;;;;;;;5041580;28;20030;-59
2023/07/21 01:26:48;;;;;;;3.70;1.63;;;;;;;;;;5042852;28;20045;-58
2023/07/21 01:29:28;;;;;;;6.97;1.90;;;;;;;;;;5043066;28;20049;-59
2023/07/21 01:32:10;;;;;;;3.17;1.33;;;;;;;;;;5042655;28;20049;-58
2023/07/21 01:34:49;;;;;;;2.72;1.23;;;;;;;;;;5043259;28;20351;-63
2023/07/21 01:37:17;;;;;;;2.15;1.42;;;;;;;;;;5042644;28;20143;-59
2023/07/21 01:39:44;;;;;;;2.55;0.90;;;;;;;;;;5042261;28;20026;-55
2023/07/21 01:42:11;;;;;;;3.50;1.27;;;;;;;;;;5042489;28;20025;-57
2023/07/21 01:44:38;;;;;;;4.88;1.45;;;;;;;;;;5042850;28;20353;-54
2023/07/21 01:47:04;;;;;;;2.17;1.13;;;;;;;;;;5042325;28;20240;-56
2023/07/21 01:49:38;;;;;;;4.18;1.13;;;;;;;;;;5042888;28;20227;-57
2023/07/21 01:52:08;;;;;;;2.40;0.68;;;;;;;;;;5042805;28;20101;-56
2023/07/21 01:54:49;;;;;;;2.47;0.90;;;;;;;;;;5042868;28;20036;-55
2023/07/21 01:57:42;;;;;;;;;;;;;;;;;;;;;
2023/07/21 02:00:20;;;;;;;3.60;0.60;;;;;;;;;;5042475;28;20055;-63
2023/07/21 02:05:48;;;;;;;4.22;0.95;;;;;;;;;;5038734;28;20037;-54
2023/07/21 02:08:15;;;;;;;3.10;0.90;;;;;;;;;;5042096;28;20071;-58
2023/07/21 02:10:44;;;;;;;2.58;0.65;;;;;;;;;;5042430;28;20021;-67
2023/07/21 02:13:11;;;;;;;3.20;0.85;;;;;;;;;;5042113;28;20024;-55
2023/07/21 02:15:41;;;;;;;2.35;0.50;;;;;;;;;;5041864;28;20098;-60
2023/07/21 02:21:20;;;;;;;5.78;0.95;;;;;;;;;;5011151;28;20022;-56
2023/07/21 02:23:47;;;;;;;4.43;1.00;;;;;;;;;;5042355;28;20057;-56
2023/07/21 02:26:13;;;;;;;2.42;0.88;;;;;;;;;;5042358;28;20029;-55
2023/07/21 02:28:43;;;;;;;4.80;1.00;;;;;;;;;;5042827;28;20056;-54
2023/07/21 02:31:10;;;;;;;4.30;0.95;;;;;;;;;;5041963;28;20229;-54
2023/07/21 02:33:37;;;;;;;3.33;0.82;;;;;;;;;;5041952;28;20064;-56
2023/07/21 02:36:05;;;;;;;2.65;1.00;;;;;;;;;;5041714;28;20086;-57
2023/07/21 02:38:31;;;;;;;3.72;1.05;;;;;;;;;;5041735;28;20033;-56
2023/07/21 02:41:09;;;;;;;2.20;1.08;;;;;;;;;;5041108;28;20089;-56
2023/07/21 02:43:38;;;;;;;2.58;1.00;;;;;;;;;;5042037;28;20029;-59
2023/07/21 02:46:05;;;;;;;6.13;1.33;;;;;;;;;;5041255;28;20017;-62
2023/07/21 02:48:34;;;;;;;6.13;1.30;;;;;;;;;;5041802;28;20025;-55
2023/07/21 02:51:00;;;;;;;4.65;1.20;;;;;;;;;;5041345;28;20037;-57
2023/07/21 02:53:27;;;;;;;2.50;1.55;;;;;;;;;;5041794;28;20025;-56
2023/07/21 02:55:54;;;;;;;4.63;1.83;;;;;;;;;;5041466;28;20049;-54
2023/07/21 02:58:22;;;;;;;3.10;1.60;;;;;;;;;;5041256;28;20037;-55
2023/07/21 03:00:48;;;;;;;8.55;1.88;;;;;;;;;;5041136;28;20025;-56
2023/07/21 03:03:15;;;;;;;9.68;1.70;;;;;;;;;;5041817;28;20089;-57
2023/07/21 03:05:42;;;;;;;4.57;1.20;;;;;;;;;;5041237;28;20033;-57
2023/07/21 03:08:09;;;;;;;3.38;0.90;;;;;;;;;;5041201;28;20209;-55
2023/07/21 03:10:39;;;;;;;7.10;1.60;;;;;;;;;;5041201;28;20049;-54
2023/07/21 03:13:05;;;;;;;4.57;1.52;;;;;;;;;;5041509;28;20041;-56
2023/07/21 03:15:34;;;;;;;7.63;1.17;;;;;;;;;;5041180;28;20026;-60
2023/07/21 03:18:01;;;;;;;6.72;1.20;;;;;;;;;;5040456;28;20374;-55
2023/07/21 03:20:28;;;;;;;6.07;1.20;;;;;;;;;;5041072;28;20038;-58
2023/07/21 03:22:55;;;;;;;5.30;1.35;;;;;;;;;;5040785;28;20014;-57
2023/07/21 03:25:21;;;;;;;5.07;1.50;;;;;;;;;;5041214;28;20046;-54
2023/07/21 03:27:51;;;;;;;5.10;1.42;;;;;;;;;;5041223;28;20032;-56
2023/07/21 03:30:23;;;;;;;4.88;1.02;;;;;;;;;;5023290;28;20034;-59
2023/07/21 03:32:51;;;;;;;2.80;1.00;;;;;;;;;;5023489;28;20095;-57
2023/07/21 03:35:18;;;;;;;2.63;1.10;;;;;;;;;;5040816;28;20029;-57
2023/07/21 03:37:45;;;;;;;2.90;1.25;;;;;;;;;;5040768;28;20036;-55
2023/07/21 03:40:12;;;;;;;5.03;1.42;;;;;;;;;;5040651;28;20033;-59
2023/07/21 03:42:39;;;;;;;5.72;1.40;;;;;;;;;;5040859;28;20294;-57
2023/07/21 03:45:06;;;;;;;4.38;1.30;;;;;;;;;;5040593;28;20033;-57
2023/07/21 03:47:34;;;;;;;4.05;1.58;;;;;;;;;;5040910;28;20025;-61
2023/07/21 03:50:02;;;;;;;3.45;1.40;;;;;;;;;;5040639;28;20033;-56
2023/07/21 03:52:29;;;;;;;3.95;1.42;;;;;;;;;;5040580;28;20032;-57
2023/07/21 03:54:55;;;;;;;6.28;1.77;;;;;;;;;;5040681;28;20064;-56
2023/07/21 03:57:22;;;;;;;7.40;1.52;;;;;;;;;;5040695;28;20017;-56
2023/07/21 03:59:49;;;;;;;7.30;1.63;;;;;;;;;;5040206;28;20041;-57
2023/07/21 04:02:16;;;;;;;7.75;1.20;;;;;;;;;;5040730;28;20037;-54
2023/07/21 04:04:43;;;;;;;3.38;1.20;;;;;;;;;;5041028;28;20366;-57
2023/07/21 04:07:10;;;;;;;3.83;1.13;;;;;;;;;;5040340;28;20037;-54
2023/07/21 04:09:37;;;;;;;7.07;1.00;;;;;;;;;;5040882;28;20037;-56
2023/07/21 04:12:04;;;;;;;4.20;1.15;;;;;;;;;;5040717;28;20092;-56
2023/07/21 04:14:31;;;;;;;6.35;1.08;;;;;;;;;;5040908;28;20033;-59
2023/07/21 04:16:57;;;;;;;7.75;1.17;;;;;;;;;;5040715;28;20190;-57
2023/07/21 04:19:27;;;;;;;4.18;1.10;;;;;;;;;;5040480;28;20032;-64
2023/07/21 04:21:54;;;;;;;3.15;1.00;;;;;;;;;;5040236;28;20030;-55
2023/07/21 04:24:21;;;;;;;5.40;1.05;;;;;;;;;;5041459;28;20029;-56
2023/07/21 04:26:47;;;;;;;7.32;1.40;;;;;;;;;;5040839;28;20033;-55
2023/07/21 04:29:14;;;;;;;3.35;1.10;;;;;;;;;;5040734;28;20044;-53
2023/07/21 04:31:41;;;;;;;2.78;0.98;;;;;;;;;;5047007;28;20057;-57
2023/07/21 04:34:07;;;;;;;11.70;1.45;;;;;;;;;;5056446;28;20201;-59
2023/07/21 04:36:35;;;;;;;9.25;1.50;;;;;;;;;;5043376;28;20061;-63
2023/07/21 04:39:01;;;;;;;5.28;1.30;;;;;;;;;;5043301;28;20037;-57
2023/07/21 04:41:28;;;;;;;7.45;1.27;;;;;;;;;;5043442;28;20028;-62
2023/07/21 04:43:55;;;;;;;6.85;1.30;;;;;;;;;;5051895;28;20092;-62
2023/07/21 04:46:22;;;;;;;9.15;1.30;;;;;;;;;;5057133;27;20226;-63
2023/07/21 04:48:49;;;;;;;3.90;1.30;;;;;;;;;;5045463;28;20021;-62
2023/07/21 04:51:15;;;;;;;2.83;0.90;;;;;;;;;;5063215;28;20141;-61
2023/07/21 04:53:42;;;;;;;5.78;1.33;;;;;;;;;;5063349;28;20029;-60
2023/07/21 04:56:09;;;;;;;7.28;1.50;;;;;;;;;;5063722;28;20021;-61
2023/07/21 04:58:41;;;;;;;8.43;1.20;;;;;;;;;;5063326;28;20037;-64
2023/07/21 05:01:09;;;;;;;4.85;1.30;;;;;;;;;;5063857;28;20061;-61
2023/07/21 05:03:35;;;;;;;6.03;1.25;;;;;;;;;;5063093;28;20070;-62
2023/07/21 05:06:02;;;;;;;8.00;1.30;;;;;;;;;;5063325;28;20033;-63
2023/07/21 05:08:29;;;;;;;8.38;1.23;;;;;;;;;;5063029;28;20033;-62
2023/07/21 05:10:55;;;;;;;6.57;1.13;;;;;;;;;;5063424;28;20162;-62
2023/07/21 05:13:22;;;;;;;5.80;1.15;;;;;;;;;;5062728;28;20029;-62
2023/07/21 05:15:49;;;;;;;4.38;1.23;;;;;;;;;;5063304;28;20029;-60
2023/07/21 05:18:18;;;;;;;6.03;1.58;;;;;;;;;;5062848;28;20021;-59
2023/07/21 05:20:45;;;;;;;3.97;1.15;;;;;;;;;;5063084;28;20036;-60
2023/07/21 05:23:20;;;;;;;3.63;1.02;;;;;;;;;;5059088;28;20036;-65
2023/07/21 05:25:46;;;;;;;4.25;1.23;;;;;;;;;;5062538;28;20017;-62
2023/07/21 05:28:13;;;;;;;6.20;1.30;;;;;;;;;;5062722;28;20060;-62
2023/07/21 05:30:42;;;;;;;3.58;1.20;;;;;;;;;;5063192;28;20313;-60
2023/07/21 05:33:09;;;;;;;8.27;1.40;;;;;;;;;;5062763;28;20083;-58
2023/07/21 05:35:36;;;;;;;5.13;1.30;;;;;;;;;;5062931;28;20265;-62
2023/07/21 05:38:03;;;;;;;6.15;1.20;;;;;;;;;;5062575;28;20032;-61
2023/07/21 05:40:29;;;;;;;4.43;1.38;;;;;;;;;;5062209;28;20284;-62
2023/07/21 05:42:56;;;;;;;4.90;1.50;;;;;;;;;;5061863;28;20025;-64
2023/07/21 05:45:22;;;;;;;5.22;1.15;;;;;;;;;;5062792;28;20017;-65
2023/07/21 05:47:49;;;;;;;4.53;1.30;;;;;;;;;;5062436;28;20097;-58
2023/07/21 05:50:16;;;;;;;3.85;1.38;;;;;;;;;;5062472;28;20036;-59
2023/07/21 05:52:42;;;;;;;4.18;1.42;;;;;;;;;;5062364;28;20048;-58
2023/07/21 05:55:10;;;;;;;4.60;1.60;;;;;;;;;;5062169;28;20313;-59
2023/07/21 05:57:37;;;;;;;5.82;1.60;;;;;;;;;;5062064;28;20032;-63
2023/07/21 06:00:04;;;;;;;6.07;1.40;;;;;;;;;;5062411;28;20040;-61
2023/07/21 06:02:31;;;;;;;5.18;1.42;;;;;;;;;;5062239;28;20046;-64
2023/07/21 06:04:58;;;;;;;4.55;1.45;;;;;;;;;;5062276;28;20194;-66
2023/07/21 06:07:25;;;;;;;8.07;1.77;;;;;;;;;;5062051;28;20013;-66
2023/07/21 06:09:51;;;;;;;5.15;1.55;;;;;;;;;;5062300;28;20025;-66
2023/07/21 06:12:18;;;;;;;7.57;1.40;;;;;;;;;;5061834;28;20064;-67
2023/07/21 06:14:45;;;;;;;7.97;1.73;;;;;;;;;;5062146;28;20027;-67
2023/07/21 06:17:11;;;;;;;4.88;1.23;;;;;;;;;;5061907;28;20029;-66
2023/07/21 06:19:38;;;;;;;4.82;1.35;;;;;;;;;;5061810;28;20033;-66
2023/07/21 06:22:05;;;;;;;5.75;1.23;;;;;;;;;;5061777;28;20085;-65
2023/07/21 06:24:31;;;;;;;5.32;1.35;;;;;;;;;;5062026;28;20031;-65
2023/07/21 06:26:58;;;;;;;6.13;1.42;;;;;;;;;;5061752;28;20029;-66
2023/07/21 06:29:25;;;;;;;5.50;1.33;;;;;;;;;;5061746;28;20308;-66
2023/07/21 06:31:53;;;;;;;5.40;1.40;;;;;;;;;;5061580;28;20028;-66
2023/07/21 06:34:22;;;;;;;5.18;1.60;;;;;;;;;;5061658;28;20033;-66
2023/07/21 06:36:50;;;;;;;9.60;1.55;;;;;;;;;;5061569;28;20036;-66
2023/07/21 06:39:16;;;;;;;10.30;1.58;;;;;;;;;;5061561;28;20036;-66
2023/07/21 06:41:44;;;;;;;5.85;2.05;;;;;;;;;;5061423;28;20221;-66
2023/07/21 06:44:11;;;;;;;6.28;1.50;;;;;;;;;;5061467;28;20313;-65
2023/07/21 06:46:38;;;;;;;4.70;1.40;;;;;;;;;;5061635;28;20072;-66
2023/07/21 06:49:05;;;;;;;7.93;1.30;;;;;;;;;;5061321;28;20374;-66
2023/07/21 06:51:31;;;;;;;5.90;1.33;;;;;;;;;;5061512;28;20060;-66
2023/07/21 06:53:58;;;;;;;6.18;1.38;;;;;;;;;;5060156;28;20209;-66
2023/07/21 06:56:24;;;;;;;2.53;1.42;;;;;;;;;;5061344;28;20043;-59
2023/07/21 06:58:51;;;;;;;5.93;1.52;;;;;;;;;;5061272;28;20021;-57
2023/07/21 07:01:18;;;;;;;6.20;1.63;;;;;;;;;;5061308;28;20030;-58
2023/07/21 07:03:51;;;;;;;4.57;1.45;;;;;;;;;;5061233;28;20056;-59
2023/07/21 07:06:17;;;;;;;7.43;1.25;;;;;;;;;;5061286;28;20025;-60
2023/07/21 07:08:44;;;;;;;6.50;1.40;;;;;;;;;;5061169;28;20041;-61
2023/07/21 07:11:18;;;;;;;6.40;1.60;;;;;;;;;;5061138;28;20060;-61
2023/07/21 07:13:45;;;;;;;6.03;1.40;;;;;;;;;;5061214;28;20358;-62
2023/07/21 07:16:11;;;;;;;5.95;1.67;;;;;;;;;;5061055;28;20201;-61
2023/07/21 07:18:38;;;;;;;4.43;1.30;;;;;;;;;;5060736;28;20021;-61
2023/07/21 07:21:05;;;;;;;5.05;1.50;;;;;;;;;;5060987;28;20021;-62
2023/07/21 07:23:31;;;;;;;4.68;1.70;;;;;;;;;;5060966;28;20033;-61
2023/07/21 07:25:59;;;;;;;3.25;1.20;;;;;;;;;;5060709;28;20229;-61
2023/07/21 07:28:28;;;;;;;5.97;1.27;;;;;;;;;;5060934;28;20032;-67
2023/07/21 07:30:55;;;;;;;4.93;1.50;;;;;;;;;;5060661;28;20317;-61
2023/07/21 07:33:22;;;;;;;4.82;1.40;;;;;;;;;;5060417;28;20052;-62
2023/07/21 07:35:49;;;;;;;5.03;1.50;;;;;;;;;;5060700;28;20080;-61
2023/07/21 07:38:18;;;;;;;6.20;1.45;;;;;;;;;;5060557;28;20033;-61
2023/07/21 07:40:46;;;;;;;5.30;1.30;;;;;;;;;;5052680;28;20021;-57
2023/07/21 07:43:12;;;;;;;2.72;1.30;;;;;;;;;;5040847;28;20026;-56
2023/07/21 07:45:39;;;;;;;4.22;1.58;;;;;;;;;;5040551;28;20329;-59
2023/07/21 07:48:09;;;;;;;4.20;1.40;;;;;;;;;;5047221;28;20030;-60
2023/07/21 07:50:39;;;;;;;3.53;1.30;;;;;;;;;;5047616;28;20058;-57
2023/07/21 07:53:06;;;;;;;3.85;1.48;;;;;;;;;;5053198;28;20041;-60
2023/07/21 07:55:39;;;;;;;7.25;1.67;;;;;;;;;;5049246;28;20048;-61
2023/07/21 07:58:06;;;;;;;6.15;1.40;;;;;;;;;;5041028;28;20033;-56
2023/07/21 08:00:37;;;;;;;4.57;1.60;;;;;;;;;;5040513;28;20345;-57
2023/07/21 08:03:07;;;;;;;4.60;1.58;;;;;;;;;;5042170;28;20028;-60
2023/07/21 08:05:35;;;;;;;9.07;1.80;;;;;;;;;;5054317;28;20035;-56
2023/07/21 08:08:05;;;;;;;6.20;1.48;;;;;;;;;;5053055;28;20029;-58
2023/07/21 08:10:31;;;;;;;4.78;1.40;;;;;;;;;;5043962;28;20031;-60
2023/07/21 08:12:59;;;;;;;4.72;1.30;;;;;;;;;;5044370;28;20029;-59
2023/07/21 08:15:28;;;;;;;3.10;1.35;;;;;;;;;;5043719;28;20037;-58
2023/07/21 08:17:55;;;;;;;4.95;1.50;;;;;;;;;;5044294;28;20025;-60
2023/07/21 08:20:22;;;;;;;7.07;1.50;;;;;;;;;;5043730;28;20045;-60
2023/07/21 08:22:53;;;;;;;3.83;1.40;;;;;;;;;;5043621;28;20089;-59
2023/07/21 08:25:20;;;;;;;6.13;1.42;;;;;;;;;;5049453;28;20054;-60
2023/07/21 08:27:47;;;;;;;4.18;1.30;;;;;;;;;;5052435;28;20256;-55
2023/07/21 08:30:14;;;;;;;4.60;1.23;;;;;;;;;;5054582;28;20394;-56
2023/07/21 08:32:42;;;;;;;5.95;1.40;;;;;;;;;;5056150;28;20090;-59
2023/07/21 08:35:09;;;;;;;6.07;1.33;;;;;;;;;;5049853;28;20037;-61
2023/07/21 08:37:36;;;;;;;5.55;1.58;;;;;;;;;;5053461;28;20054;-58
2023/07/21 08:40:03;;;;;;;3.35;1.27;;;;;;;;;;5043379;28;20317;-61
2023/07/21 08:42:31;;;;;;;3.22;1.27;;;;;;;;;;5043475;28;20056;-59
2023/07/21 08:44:58;;;;;;;3.60;1.20;;;;;;;;;;5043166;28;20029;-60
2023/07/21 08:47:25;;;;;;;5.50;1.40;;;;;;;;;;5043358;28;20187;-59
2023/07/21 08:49:52;;;;;;;4.13;1.52;;;;;;;;;;5043785;28;20037;-62
2023/07/21 08:52:18;;;;;;;8.30;1.95;;;;;;;;;;5043175;28;20037;-58
2023/07/21 08:54:45;;;;;;;7.53;1.70;;;;;;;;;;5043792;28;20031;-61
2023/07/21 08:57:12;;;;;;;9.05;1.70;;;;;;;;;;5044651;28;20033;-58
2023/07/21 08:59:39;;;;;;;3.92;1.27;;;;;;;;;;5053677;28;20035;-60
2023/07/21 09:02:06;;;;;;;6.05;1.35;;;;;;;;;;5053811;28;20032;-59
2023/07/21 09:04:34;;;;;;;9.15;1.70;;;;;;;;;;5051620;28;20031;-60
2023/07/21 09:07:02;;;;;;;6.55;2.08;;;;;;;;;;5053849;28;20071;-61
2023/07/21 09:09:30;;;;;;;7.53;1.40;;;;;;;;;;5047673;28;20036;-63
2023/07/21 09:12:03;;;;;;;9.20;1.75;;;;;;;;;;5055324;28;20033;-60
2023/07/21 09:14:37;;;;;;;7.47;1.60;;;;;;;;;;5056337;28;20025;-60
2023/07/21 09:17:07;;;;;;;3.70;1.20;;;;;;;;;;5041915;28;20203;-60
2023/07/21 09:19:37;;;;;;;7.57;1.88;;;;;;;;;;5043223;28;20033;-60
2023/07/21 09:22:04;;;;;;;5.78;1.40;;;;;;;;;;5042836;28;20053;-59
2023/07/21 09:24:31;;;;;;;3.15;1.40;;;;;;;;;;5044971;28;20048;-58
2023/07/21 09:27:18;;;;;;;4.65;1.50;;;;;;;;;;5053738;28;20041;-60
2023/07/21 09:29:45;;;;;;;4.03;1.42;;;;;;;;;;5051787;28;20039;-58
2023/07/21 09:32:13;;;;;;;7.97;1.50;;;;;;;;;;5046708;28;20057;-57
2023/07/21 09:34:56;;;;;;;5.15;1.48;;;;;;;;;;5051763;28;20337;-59
2023/07/21 09:37:25;;;;;;;5.70;1.63;;;;;;;;;;5055758;28;20041;-56
2023/07/21 09:39:52;;;;;;;5.97;1.67;;;;;;;;;;5056455;28;20029;-57
2023/07/21 09:42:23;;;;;;;8.30;1.60;;;;;;;;;;5052090;28;20381;-57
2023/07/21 09:44:50;;;;;;;4.10;1.55;;;;;;;;;;5045002;28;20031;-55
2023/07/21 09:47:17;;;;;;;4.75;1.58;;;;;;;;;;5043028;28;20141;-59
2023/07/21 09:49:48;;;;;;;6.35;1.52;;;;;;;;;;5042855;28;20209;-59
2023/07/21 09:52:16;;;;;;;3.72;1.40;;;;;;;;;;5047371;28;20032;-59
2023/07/21 09:54:47;;;;;;;8.25;1.70;;;;;;;;;;5049736;28;20025;-60
2023/07/21 09:57:19;;;;;;;2.45;1.33;;;;;;;;;;5052319;28;20205;-56
2023/07/21 09:59:49;;;;;;;5.38;1.48;;;;;;;;;;5053874;28;20036;-60
2023/07/21 10:02:16;;;;;;;4.95;1.42;;;;;;;;;;5041844;28;20213;-59
2023/07/21 10:04:46;;;;;;;18.27;1.88;;;;;;;;;;5052421;28;20024;-57
2023/07/21 10:07:14;;;;;;;7.97;1.80;;;;;;;;;;5043579;28;20017;-58
2023/07/21 10:09:41;;;;;;;9.00;1.30;;;;;;;;;;5053028;28;20028;-60
2023/07/21 10:12:11;;;;;;;4.13;1.50;;;;;;;;;;5053275;28;20052;-59
2023/07/21 10:14:38;;;;;;;5.30;1.52;;;;;;;;;;5051265;28;20025;-61
2023/07/21 10:17:10;;;;;;;8.20;1.60;;;;;;;;;;5049736;28;20255;-59
2023/07/21 10:19:40;;;;;;;7.07;1.90;;;;;;;;;;5045872;28;20037;-60
2023/07/21 10:22:11;;;;;;;8.82;1.48;;;;;;;;;;5050954;28;20033;-58
2023/07/21 10:24:44;;;;;;;2.58;1.40;;;;;;;;;;5051868;28;20029;-58
2023/07/21 10:27:19;;;;;;;5.88;1.63;;;;;;;;;;5044098;28;20290;-56
2023/07/21 10:29:45;;;;;;;8.20;1.90;;;;;;;;;;5046095;28;20036;-54
2023/07/21 10:32:12;;;;;;;11.02;2.17;;;;;;;;;;5050756;28;20049;-58
2023/07/21 10:34:43;;;;;;;11.20;2.25;;;;;;;;;;5050523;28;20037;-63
2023/07/21 10:37:09;;;;;;;8.55;2.10;;;;;;;;;;5042216;28;20061;-61
2023/07/21 10:39:37;;;;;;;9.15;1.90;;;;;;;;;;5041427;28;20313;-63
2023/07/21 10:42:08;;;;;;;7.43;1.83;;;;;;;;;;5042101;28;20039;-63
2023/07/21 10:44:53;;;;;;;6.45;2.03;;;;;;;;;;5041594;28;20033;-66
2023/07/21 10:47:21;;;;;;;5.15;2.25;;;;;;;;;;5061071;28;20043;-61
2023/07/21 10:49:48;;;;;;;7.45;2.40;;;;;;;;;;5061364;28;20194;-61
2023/07/21 10:52:15;;;;;;;6.47;2.63;;;;;;;;;;5052872;28;20039;-61
2023/07/21 10:54:45;;;;;;;7.55;2.72;;;;;;;;;;5041533;28;20032;-57
2023/07/21 10:57:11;;;;;;;12.18;2.78;;;;;;;;;;5041727;28;20044;-57
2023/07/21 10:59:38;;;;;;;13.02;3.10;;;;;;;;;;5041610;28;20025;-61
2023/07/21 11:02:09;;;;;;;8.75;3.00;;;;;;;;;;5041469;28;21551;-62
2023/07/21 11:04:35;;;;;;;7.75;3.08;;;;;;;;;;5041249;28;20030;-57
2023/07/21 11:07:08;;;;;;;5.50;3.67;;;;;;;;;;5041999;28;20089;-58
2023/07/21 11:09:43;;;;;;;12.27;5.20;;;;;;;;;;5041436;27;20254;-63
2023/07/21 11:12:10;;;;;;;11.05;4.40;;;;;;;;;;5041340;28;20029;-62
2023/07/21 11:14:37;;;;;;;10.05;3.55;;;;;;;;;;5040930;28;20022;-62
2023/07/21 11:17:16;;;;;;;9.43;2.60;;;;;;;;;;5043586;28;20029;-61
2023/07/21 11:19:46;;;;;;;7.25;2.38;;;;;;;;;;5048818;28;20074;-61
2023/07/21 11:22:30;;;;;;;7.95;2.58;;;;;;;;;;5023410;28;20088;-65
2023/07/21 11:25:33;;;;;;;5.63;2.58;;;;;;;;;;5040939;28;20313;-62
2023/07/21 11:28:05;;;;;;;7.00;2.33;;;;;;;;;;5040742;28;20066;-60
2023/07/21 11:30:32;;;;;;;5.07;2.47;;;;;;;;;;5040968;28;20097;-59
2023/07/21 11:33:09;;;;;;;6.70;3.25;;;;;;;;;;5040917;28;20070;-57
2023/07/21 11:35:46;;;;;;;6.93;3.05;;;;;;;;;;5058511;28;20028;-62
2023/07/21 11:38:13;;;;;;;5.63;3.10;;;;;;;;;;5061045;28;20061;-62
2023/07/21 11:41:25;;;;;;;7.43;2.85;;;;;;;;;;5063652;28;20037;-64
2023/07/21 11:44:25;;;;;;;2.95;2.58;;;;;;;;;;5064155;28;20040;-63
2023/07/21 11:47:04;;;;;;;5.88;2.60;;;;;;;;;;5084631;28;20033;-66
2023/07/21 11:49:40;;;;;;;7.13;2.55;;;;;;;;;;5084606;28;20032;-60
2023/07/21 11:52:13;;;;;;;6.32;2.83;;;;;;;;;;5079897;28;20025;-59
2023/07/21 11:54:42;;;;;;;10.18;2.85;;;;;;;;;;5064641;28;20036;-60
2023/07/21 11:57:24;;;;;;;5.43;2.13;;;;;;;;;;5064687;28;20043;-58
2023/07/21 11:59:51;;;;;;;5.00;2.20;;;;;;;;;;5054358;28;20017;-56
2023/07/21 12:02:22;;;;;;;7.00;2.15;;;;;;;;;;5066800;28;20352;-54
2023/07/21 12:05:02;;;;;;;7.75;2.10;;;;;;;;;;5061418;28;20025;-58
2023/07/21 12:07:33;;;;;;;9.80;2.30;;;;;;;;;;4996428;28;20034;-58
2023/07/21 12:10:00;;;;;;;6.88;1.92;;;;;;;;;;5002917;28;20049;-53
2023/07/21 12:12:27;;;;;;;6.55;1.85;;;;;;;;;;5002872;28;20031;-55
2023/07/21 12:14:54;;;;;;;5.72;1.83;;;;;;;;;;5002599;28;20332;-54
2023/07/21 12:17:20;;;;;;;8.48;2.20;;;;;;;;;;5002421;28;20322;-55
2023/07/21 12:19:47;;;;;;;3.13;1.77;;;;;;;;;;5043733;28;20043;-54
2023/07/21 12:22:14;;;;;;;8.80;1.85;;;;;;;;;;5028560;28;20027;-55
2023/07/21 12:24:40;;;;;;;4.47;2.00;;;;;;;;;;5002041;28;20251;-52
2023/07/21 12:27:07;;;;;;;5.55;1.85;;;;;;;;;;5002753;28;20018;-55
2023/07/21 12:29:34;;;;;;;7.13;1.77;;;;;;;;;;5002862;28;20038;-53
2023/07/21 12:32:01;;;;;;;8.90;2.00;;;;;;;;;;5003445;28;20352;-52
2023/07/21 12:34:28;;;;;;;5.18;1.77;;;;;;;;;;5002909;28;20333;-52
2023/07/21 12:37:00;;;;;;;4.50;1.73;;;;;;;;;;4996143;28;20039;-57
2023/07/21 12:39:28;;;;;;;8.13;1.92;;;;;;;;;;5000863;28;20350;-52
2023/07/21 12:41:56;;;;;;;4.88;1.70;;;;;;;;;;5002190;28;20034;-51
2023/07/21 12:44:23;;;;;;;6.35;1.90;;;;;;;;;;5014496;28;20061;-53
2023/07/21 12:46:49;;;;;;;2.63;1.60;;;;;;;;;;5063602;28;20314;-54
2023/07/21 12:49:16;;;;;;;5.78;2.10;;;;;;;;;;5063321;28;20048;-56
2023/07/21 12:51:43;;;;;;;5.40;1.90;;;;;;;;;;5063717;28;20040;-53
2023/07/21 12:54:10;;;;;;;6.30;1.90;;;;;;;;;;5062980;28;20084;-53
2023/07/21 12:56:37;;;;;;;2.70;1.80;;;;;;;;;;5052391;28;20037;-54
2023/07/21 12:59:03;;;;;;;4.68;2.00;;;;;;;;;;5051805;28;20061;-53
2023/07/21 13:01:30;;;;;;;3.17;1.77;;;;;;;;;;5043557;28;20024;-61
2023/07/21 13:03:56;;;;;;;9.27;2.30;;;;;;;;;;5042968;28;20034;-54
2023/07/21 13:06:23;;;;;;;4.63;2.00;;;;;;;;;;5067959;28;20032;-55
2023/07/21 13:08:50;;;;;;;62.55;5.93;;;;;;;;;;5051899;28;20028;-51
2023/07/21 13:11:16;;;;;;;27.40;2.78;;;;;;;;;;5043246;28;20301;-52
2023/07/21 13:13:45;;;;;;;16.65;2.58;;;;;;;;;;5043073;28;20225;-55
2023/07/21 13:16:12;;;;;;;9.23;2.47;;;;;;;;;;5052124;28;20067;-57
2023/07/21 13:18:40;;;;;;;6.72;2.50;;;;;;;;;;5062096;28;20060;-58
2023/07/21 13:21:06;;;;;;;7.53;2.05;;;;;;;;;;5042935;28;20083;-52
2023/07/21 13:23:33;;;;;;;5.28;2.05;;;;;;;;;;5055189;28;20017;-53
2023/07/21 13:26:00;;;;;;;9.68;2.25;;;;;;;;;;5054756;27;20029;-53
2023/07/21 13:28:27;;;;;;;8.23;2.25;;;;;;;;;;5053256;28;20021;-50
2023/07/21 13:30:54;;;;;;;3.20;1.65;;;;;;;;;;5060830;28;20016;-51
2023/07/21 13:33:21;;;;;;;6.15;2.03;;;;;;;;;;5062732;28;20071;-49
2023/07/21 13:35:49;;;;;;;5.18;1.80;;;;;;;;;;5056500;28;20025;-52
2023/07/21 13:38:16;;;;;;;6.65;2.30;;;;;;;;;;5045703;28;20071;-56
2023/07/21 13:40:43;;;;;;;3.30;1.90;;;;;;;;;;5042587;28;20029;-55
2023/07/21 13:43:10;;;;;;;5.72;1.95;;;;;;;;;;5042541;28;20088;-54
2023/07/21 13:45:36;;;;;;;3.17;1.80;;;;;;;;;;5042812;28;20052;-52
2023/07/21 13:48:03;;;;;;;7.90;1.92;;;;;;;;;;5042355;28;20053;-53
2023/07/21 13:50:30;;;;;;;5.50;2.03;;;;;;;;;;5042910;28;20317;-52
2023/07/21 13:52:56;;;;;;;2.85;1.90;;;;;;;;;;5042550;28;20053;-53
2023/07/21 13:55:23;;;;;;;5.47;1.98;;;;;;;;;;5042389;28;20365;-54
2023/07/21 13:57:49;;;;;;;5.47;1.95;;;;;;;;;;5044834;28;20068;-53
2023/07/21 14:00:18;;;;;;;8.23;2.22;;;;;;;;;;5051358;28;20049;-52
2023/07/21 14:02:46;;;;;;;8.40;2.45;;;;;;;;;;5042618;28;20033;-52
2023/07/21 14:05:13;;;;;;;4.25;2.15;;;;;;;;;;5043030;28;20179;-55
2023/07/21 14:07:40;;;;;;;8.65;2.40;;;;;;;;;;5043002;28;20062;-56
2023/07/21 14:10:07;;;;;;;6.97;2.30;;;;;;;;;;5042288;28;20139;-58
2023/07/21 14:12:44;;;;;;;4.88;2.00;;;;;;;;;;5044711;28;20044;-55
2023/07/21 14:15:23;;;;;;;2.63;1.75;;;;;;;;;;5061130;28;20343;-54
2023/07/21 14:17:52;;;;;;;4.13;2.00;;;;;;;;;;5062201;28;20037;-53
2023/07/21 14:20:28;;;;;;;4.82;1.88;;;;;;;;;;5062115;28;20013;-56
2023/07/21 14:23:05;;;;;;;4.72;1.70;;;;;;;;;;5061889;28;20037;-54
2023/07/21 14:25:33;;;;;;;10.75;1.80;;;;;;;;;;5062011;28;20081;-50
2023/07/21 14:28:00;;;;;;;3.80;1.65;;;;;;;;;;5061685;28;20036;-50
2023/07/21 14:30:45;;;;;;;4.28;1.90;;;;;;;;;;5061865;28;20025;-61
2023/07/21 14:33:11;;;;;;;2.45;1.35;;;;;;;;;;5061560;28;20333;-63
2023/07/21 14:35:46;;;;;;;3.85;2.03;;;;;;;;;;5061739;28;20036;-55
2023/07/21 14:38:15;;;;;;;4.50;1.70;;;;;;;;;;5061568;28;20087;-54
2023/07/21 14:40:42;;;;;;;4.75;2.15;;;;;;;;;;5061528;28;20028;-51
2023/07/21 14:43:13;;;;;;;4.85;1.90;;;;;;;;;;5061570;28;20092;-48
2023/07/21 14:45:43;;;;;;;3.53;1.70;;;;;;;;;;5061664;28;20009;-57
2023/07/21 14:48:09;;;;;;;3.67;1.75;;;;;;;;;;5052928;28;20361;-57
2023/07/21 14:50:36;;;;;;;2.38;1.60;;;;;;;;;;5051775;28;20025;-56
2023/07/21 14:53:03;;;;;;;3.28;1.50;;;;;;;;;;5049545;28;20056;-52
2023/07/21 14:55:33;;;;;;;2.75;1.63;;;;;;;;;;5055967;28;20033;-53
2023/07/21 14:58:18;;;;;;;3.78;1.80;;;;;;;;;;5043699;28;20320;-53
2023/07/21 15:04:09;;;;;;;6.72;1.80;;;;;;;;;;5048396;28;20036;-56
2023/07/21 15:06:37;;;;;;;2.28;1.55;;;;;;;;;;5042059;28;20100;-53